sensor_id;sensor_type;location;lat;lon;timestamp;P1;durP1;ratioP1;P2;durP2;ratioP2
19593;SDS011;9944;48.240;16.478;2023-07-31T00:01:32;1.38;;;1.17;;
19593;SDS011;9944;48.240;16.478;2023-07-31T00:05:36;1.80;;;1.10;;
19593;SDS011;9944;48.240;16.478;2023-07-31T00:09:39;1.40;;;0.73;;
19593;SDS011;9944;48.240;16.478;2023-07-31T00:13:44;1.00;;;0.88;;
19593;SDS011;9944;48.240;16.478;2023-07-31T00:17:47;1.20;;;0.90;;
19593;SDS011;9944;48.240;16.478;2023-07-31T00:21:51;1.20;;;1.08;;
19593;SDS011;9944;48.240;16.478;2023-07-31T00:25:54;2.15;;;1.10;;
19593;SDS011;9944;48.240;16.478;2023-07-31T00:29:59;1.10;;;1.00;;
19593;SDS011;9944;48.240;16.478;2023-07-31T00:34:02;2.17;;;1.20;;
19593;SDS011;9944;48.240;16.478;2023-07-31T00:38:09;1.10;;;1.00;;
19593;SDS011;9944;48.240;16.478;2023-07-31T00:42:14;1.48;;;1.00;;
19593;SDS011;9944;48.240;16.478;2023-07-31T00:46:18;1.33;;;1.17;;
19593;SDS011;9944;48.240;16.478;2023-07-31T00:50:23;1.08;;;0.93;;
19593;SDS011;9944;48.240;16.478;2023-07-31T00:54:27;1.40;;;1.15;;
19593;SDS011;9944;48.240;16.478;2023-07-31T00:58:31;1.20;;;1.00;;
19593;SDS011;9944;48.240;16.478;2023-07-31T01:02:36;1.80;;;1.08;;
19593;SDS011;9944;48.240;16.478;2023-07-31T01:06:43;1.00;;;0.90;;
19593;SDS011;9944;48.240;16.478;2023-07-31T01:10:53;1.10;;;1.00;;
19593;SDS011;9944;48.240;16.478;2023-07-31T01:15:03;1.73;;;1.10;;
19593;SDS011;9944;48.240;16.478;2023-07-31T01:19:10;1.38;;;1.10;;
19593;SDS011;9944;48.240;16.478;2023-07-31T01:23:28;1.02;;;0.90;;
19593;SDS011;9944;48.240;16.478;2023-07-31T01:32:10;2.10;;;1.00;;
19593;SDS011;9944;48.240;16.478;2023-07-31T01:36:16;1.67;;;1.25;;
19593;SDS011;9944;48.240;16.478;2023-07-31T01:40:20;2.17;;;1.40;;
19593;SDS011;9944;48.240;16.478;2023-07-31T01:44:24;1.60;;;1.13;;
19593;SDS011;9944;48.240;16.478;2023-07-31T01:48:28;1.55;;;1.23;;
19593;SDS011;9944;48.240;16.478;2023-07-31T01:52:37;1.20;;;0.90;;
19593;SDS011;9944;48.240;16.478;2023-07-31T01:56:42;2.42;;;1.00;;
19593;SDS011;9944;48.240;16.478;2023-07-31T02:00:47;1.27;;;1.00;;
19593;SDS011;9944;48.240;16.478;2023-07-31T02:04:51;2.45;;;1.08;;
19593;SDS011;9944;48.240;16.478;2023-07-31T02:08:54;1.30;;;1.08;;
19593;SDS011;9944;48.240;16.478;2023-07-31T02:12:58;1.20;;;0.90;;
19593;SDS011;9944;48.240;16.478;2023-07-31T02:17:04;1.65;;;1.10;;
19593;SDS011;9944;48.240;16.478;2023-07-31T02:21:08;1.13;;;0.93;;
19593;SDS011;9944;48.240;16.478;2023-07-31T02:25:12;1.42;;;1.10;;
19593;SDS011;9944;48.240;16.478;2023-07-31T02:29:15;1.95;;;1.30;;
19593;SDS011;9944;48.240;16.478;2023-07-31T02:33:21;1.55;;;1.00;;
19593;SDS011;9944;48.240;16.478;2023-07-31T02:37:24;1.88;;;0.90;;
19593;SDS011;9944;48.240;16.478;2023-07-31T02:41:28;1.00;;;1.00;;
19593;SDS011;9944;48.240;16.478;2023-07-31T02:45:31;1.30;;;1.00;;
19593;SDS011;9944;48.240;16.478;2023-07-31T02:49:36;1.20;;;1.00;;
19593;SDS011;9944;48.240;16.478;2023-07-31T02:53:40;1.73;;;1.08;;
19593;SDS011;9944;48.240;16.478;2023-07-31T02:57:43;1.42;;;1.05;;
19593;SDS011;9944;48.240;16.478;2023-07-31T03:01:47;1.20;;;1.10;;
19593;SDS011;9944;48.240;16.478;2023-07-31T03:05:52;1.70;;;1.02;;
19593;SDS011;9944;48.240;16.478;2023-07-31T03:09:55;1.27;;;0.85;;
19593;SDS011;9944;48.240;16.478;2023-07-31T03:13:59;1.48;;;1.00;;
19593;SDS011;9944;48.240;16.478;2023-07-31T03:18:02;1.90;;;1.10;;
19593;SDS011;9944;48.240;16.478;2023-07-31T03:22:07;1.98;;;1.20;;
19593;SDS011;9944;48.240;16.478;2023-07-31T03:26:11;2.17;;;1.10;;
19593;SDS011;9944;48.240;16.478;2023-07-31T03:30:15;0.70;;;0.70;;
19593;SDS011;9944;48.240;16.478;2023-07-31T03:34:19;1.35;;;1.00;;
19593;SDS011;9944;48.240;16.478;2023-07-31T03:38:23;1.48;;;1.00;;
19593;SDS011;9944;48.240;16.478;2023-07-31T03:42:27;2.80;;;1.08;;
19593;SDS011;9944;48.240;16.478;2023-07-31T03:46:31;1.77;;;1.00;;
19593;SDS011;9944;48.240;16.478;2023-07-31T03:50:35;1.25;;;1.10;;
19593;SDS011;9944;48.240;16.478;2023-07-31T03:54:40;1.42;;;1.00;;
19593;SDS011;9944;48.240;16.478;2023-07-31T03:58:46;1.42;;;1.00;;
19593;SDS011;9944;48.240;16.478;2023-07-31T04:02:50;1.42;;;0.95;;
19593;SDS011;9944;48.240;16.478;2023-07-31T04:06:53;1.38;;;1.10;;
19593;SDS011;9944;48.240;16.478;2023-07-31T04:10:58;1.13;;;1.02;;
19593;SDS011;9944;48.240;16.478;2023-07-31T04:15:02;2.63;;;1.10;;
19593;SDS011;9944;48.240;16.478;2023-07-31T04:19:05;4.07;;;1.02;;
19593;SDS011;9944;48.240;16.478;2023-07-31T04:23:09;1.65;;;1.10;;
19593;SDS011;9944;48.240;16.478;2023-07-31T04:27:14;2.28;;;1.10;;
19593;SDS011;9944;48.240;16.478;2023-07-31T04:31:17;1.08;;;0.98;;
19593;SDS011;9944;48.240;16.478;2023-07-31T04:35:21;1.23;;;1.13;;
19593;SDS011;9944;48.240;16.478;2023-07-31T04:39:24;3.17;;;1.10;;
19593;SDS011;9944;48.240;16.478;2023-07-31T04:43:29;1.65;;;1.10;;
19593;SDS011;9944;48.240;16.478;2023-07-31T04:47:33;1.17;;;0.98;;
19593;SDS011;9944;48.240;16.478;2023-07-31T04:51:36;1.48;;;1.38;;
19593;SDS011;9944;48.240;16.478;2023-07-31T04:55:40;2.88;;;1.17;;
19593;SDS011;9944;48.240;16.478;2023-07-31T04:59:44;1.13;;;1.00;;
19593;SDS011;9944;48.240;16.478;2023-07-31T05:03:50;2.25;;;1.13;;
19593;SDS011;9944;48.240;16.478;2023-07-31T05:07:54;1.50;;;1.27;;
19593;SDS011;9944;48.240;16.478;2023-07-31T05:11:58;3.83;;;1.42;;
19593;SDS011;9944;48.240;16.478;2023-07-31T05:16:03;3.10;;;1.73;;
19593;SDS011;9944;48.240;16.478;2023-07-31T05:20:07;1.98;;;1.55;;
19593;SDS011;9944;48.240;16.478;2023-07-31T05:24:11;3.83;;;1.50;;
19593;SDS011;9944;48.240;16.478;2023-07-31T05:28:14;4.80;;;2.08;;
19593;SDS011;9944;48.240;16.478;2023-07-31T05:32:19;5.93;;;2.05;;
19593;SDS011;9944;48.240;16.478;2023-07-31T05:36:23;1.85;;;1.20;;
19593;SDS011;9944;48.240;16.478;2023-07-31T05:40:26;1.80;;;1.30;;
19593;SDS011;9944;48.240;16.478;2023-07-31T05:44:30;2.35;;;1.30;;
19593;SDS011;9944;48.240;16.478;2023-07-31T05:48:35;1.65;;;1.38;;
19593;SDS011;9944;48.240;16.478;2023-07-31T05:52:38;3.30;;;1.67;;
19593;SDS011;9944;48.240;16.478;2023-07-31T05:56:42;1.30;;;1.15;;
19593;SDS011;9944;48.240;16.478;2023-07-31T06:00:46;1.65;;;1.15;;
19593;SDS011;9944;48.240;16.478;2023-07-31T06:04:51;1.50;;;1.40;;
19593;SDS011;9944;48.240;16.478;2023-07-31T06:08:54;4.00;;;1.40;;
19593;SDS011;9944;48.240;16.478;2023-07-31T06:12:58;3.50;;;1.70;;
19593;SDS011;9944;48.240;16.478;2023-07-31T06:17:02;2.20;;;1.92;;
19593;SDS011;9944;48.240;16.478;2023-07-31T06:21:07;2.13;;;1.30;;
19593;SDS011;9944;48.240;16.478;2023-07-31T06:25:11;2.95;;;1.42;;
19593;SDS011;9944;48.240;16.478;2023-07-31T06:29:17;2.58;;;1.40;;
19593;SDS011;9944;48.240;16.478;2023-07-31T06:33:20;1.73;;;1.17;;
19593;SDS011;9944;48.240;16.478;2023-07-31T06:37:25;1.10;;;1.00;;
19593;SDS011;9944;48.240;16.478;2023-07-31T06:41:29;1.83;;;1.17;;
19593;SDS011;9944;48.240;16.478;2023-07-31T06:45:33;2.17;;;1.33;;
19593;SDS011;9944;48.240;16.478;2023-07-31T06:49:36;2.17;;;1.20;;
19593;SDS011;9944;48.240;16.478;2023-07-31T06:53:41;2.13;;;1.23;;
19593;SDS011;9944;48.240;16.478;2023-07-31T06:57:47;2.05;;;1.23;;
19593;SDS011;9944;48.240;16.478;2023-07-31T07:01:50;2.22;;;1.25;;
19593;SDS011;9944;48.240;16.478;2023-07-31T07:05:54;1.52;;;1.10;;
19593;SDS011;9944;48.240;16.478;2023-07-31T07:09:59;2.78;;;1.40;;
19593;SDS011;9944;48.240;16.478;2023-07-31T07:14:02;1.77;;;1.23;;
19593;SDS011;9944;48.240;16.478;2023-07-31T07:18:06;1.23;;;1.10;;
19593;SDS011;9944;48.240;16.478;2023-07-31T07:22:10;3.30;;;1.20;;
19593;SDS011;9944;48.240;16.478;2023-07-31T07:26:15;1.83;;;1.20;;
19593;SDS011;9944;48.240;16.478;2023-07-31T07:30:19;0.90;;;0.90;;
19593;SDS011;9944;48.240;16.478;2023-07-31T07:34:24;1.20;;;1.00;;
19593;SDS011;9944;48.240;16.478;2023-07-31T07:38:29;1.58;;;1.10;;
19593;SDS011;9944;48.240;16.478;2023-07-31T07:42:33;1.38;;;0.90;;
19593;SDS011;9944;48.240;16.478;2023-07-31T07:46:37;2.35;;;0.70;;
19593;SDS011;9944;48.240;16.478;2023-07-31T07:50:41;0.98;;;0.80;;
19593;SDS011;9944;48.240;16.478;2023-07-31T07:54:44;2.97;;;1.08;;
19593;SDS011;9944;48.240;16.478;2023-07-31T07:58:50;1.90;;;1.00;;
19593;SDS011;9944;48.240;16.478;2023-07-31T08:02:53;1.73;;;0.90;;
19593;SDS011;9944;48.240;16.478;2023-07-31T08:06:59;1.25;;;0.98;;
19593;SDS011;9944;48.240;16.478;2023-07-31T08:11:03;1.35;;;0.93;;
19593;SDS011;9944;48.240;16.478;2023-07-31T08:15:08;1.27;;;0.90;;
19593;SDS011;9944;48.240;16.478;2023-07-31T08:19:12;2.78;;;1.20;;
19593;SDS011;9944;48.240;16.478;2023-07-31T08:23:16;1.67;;;1.20;;
19593;SDS011;9944;48.240;16.478;2023-07-31T08:27:19;3.58;;;1.20;;
19593;SDS011;9944;48.240;16.478;2023-07-31T08:31:25;2.35;;;1.05;;
19593;SDS011;9944;48.240;16.478;2023-07-31T08:35:28;2.38;;;1.20;;
19593;SDS011;9944;48.240;16.478;2023-07-31T08:39:32;1.80;;;1.20;;
19593;SDS011;9944;48.240;16.478;2023-07-31T08:43:35;1.70;;;1.08;;
19593;SDS011;9944;48.240;16.478;2023-07-31T08:47:44;2.25;;;0.98;;
19593;SDS011;9944;48.240;16.478;2023-07-31T08:51:49;1.80;;;1.05;;
19593;SDS011;9944;48.240;16.478;2023-07-31T08:55:53;4.72;;;1.20;;
19593;SDS011;9944;48.240;16.478;2023-07-31T08:59:57;1.42;;;1.05;;
19593;SDS011;9944;48.240;16.478;2023-07-31T09:04:03;1.92;;;1.25;;
19593;SDS011;9944;48.240;16.478;2023-07-31T09:08:07;1.60;;;1.00;;
19593;SDS011;9944;48.240;16.478;2023-07-31T09:12:12;1.20;;;0.90;;
19593;SDS011;9944;48.240;16.478;2023-07-31T09:16:16;1.10;;;0.90;;
19593;SDS011;9944;48.240;16.478;2023-07-31T09:20:21;1.95;;;0.98;;
19593;SDS011;9944;48.240;16.478;2023-07-31T09:24:25;1.58;;;0.93;;
19593;SDS011;9944;48.240;16.478;2023-07-31T09:28:30;1.83;;;0.90;;
19593;SDS011;9944;48.240;16.478;2023-07-31T09:32:35;1.17;;;1.08;;
19593;SDS011;9944;48.240;16.478;2023-07-31T09:36:41;1.00;;;0.90;;
19593;SDS011;9944;48.240;16.478;2023-07-31T09:40:46;1.33;;;0.90;;
19593;SDS011;9944;48.240;16.478;2023-07-31T09:44:51;1.48;;;1.00;;
19593;SDS011;9944;48.240;16.478;2023-07-31T09:49:02;2.13;;;0.85;;
19593;SDS011;9944;48.240;16.478;2023-07-31T09:53:12;1.08;;;0.70;;
19593;SDS011;9944;48.240;16.478;2023-07-31T09:57:16;1.45;;;0.90;;
19593;SDS011;9944;48.240;16.478;2023-07-31T10:01:21;1.23;;;1.00;;
19593;SDS011;9944;48.240;16.478;2023-07-31T10:05:25;1.10;;;0.80;;
19593;SDS011;9944;48.240;16.478;2023-07-31T10:09:36;2.25;;;0.88;;
19593;SDS011;9944;48.240;16.478;2023-07-31T10:13:40;0.88;;;0.75;;
19593;SDS011;9944;48.240;16.478;2023-07-31T10:17:46;1.25;;;1.00;;
19593;SDS011;9944;48.240;16.478;2023-07-31T10:21:50;1.63;;;1.08;;
19593;SDS011;9944;48.240;16.478;2023-07-31T10:25:56;3.97;;;1.02;;
19593;SDS011;9944;48.240;16.478;2023-07-31T10:30:02;0.98;;;0.68;;
19593;SDS011;9944;48.240;16.478;2023-07-31T10:34:08;1.17;;;0.80;;
19593;SDS011;9944;48.240;16.478;2023-07-31T10:38:12;2.00;;;0.90;;
19593;SDS011;9944;48.240;16.478;2023-07-31T10:42:17;1.00;;;0.90;;
19593;SDS011;9944;48.240;16.478;2023-07-31T10:46:21;1.52;;;0.98;;
19593;SDS011;9944;48.240;16.478;2023-07-31T10:50:25;0.90;;;0.77;;
19593;SDS011;9944;48.240;16.478;2023-07-31T10:54:29;2.25;;;0.90;;
19593;SDS011;9944;48.240;16.478;2023-07-31T10:58:34;1.17;;;0.93;;
19593;SDS011;9944;48.240;16.478;2023-07-31T11:02:39;2.05;;;0.90;;
19593;SDS011;9944;48.240;16.478;2023-07-31T11:06:50;1.30;;;1.00;;
19593;SDS011;9944;48.240;16.478;2023-07-31T11:11:05;1.38;;;1.00;;
19593;SDS011;9944;48.240;16.478;2023-07-31T11:15:12;1.67;;;1.02;;
19593;SDS011;9944;48.240;16.478;2023-07-31T11:19:20;1.50;;;1.02;;
19593;SDS011;9944;48.240;16.478;2023-07-31T11:23:25;4.38;;;0.95;;
19593;SDS011;9944;48.240;16.478;2023-07-31T11:27:29;1.90;;;0.82;;
19593;SDS011;9944;48.240;16.478;2023-07-31T11:31:34;1.25;;;0.93;;
19593;SDS011;9944;48.240;16.478;2023-07-31T11:35:45;1.35;;;0.82;;
19593;SDS011;9944;48.240;16.478;2023-07-31T11:40:00;0.85;;;0.80;;
19593;SDS011;9944;48.240;16.478;2023-07-31T11:44:04;1.40;;;0.98;;
19593;SDS011;9944;48.240;16.478;2023-07-31T11:48:29;1.25;;;0.90;;
19593;SDS011;9944;48.240;16.478;2023-07-31T11:52:36;1.00;;;0.90;;
19593;SDS011;9944;48.240;16.478;2023-07-31T11:56:42;1.35;;;1.00;;
19593;SDS011;9944;48.240;16.478;2023-07-31T12:00:47;1.40;;;0.82;;
19593;SDS011;9944;48.240;16.478;2023-07-31T12:04:53;2.25;;;1.08;;
19593;SDS011;9944;48.240;16.478;2023-07-31T12:09:00;2.15;;;0.90;;
19593;SDS011;9944;48.240;16.478;2023-07-31T12:13:05;1.40;;;0.90;;
19593;SDS011;9944;48.240;16.478;2023-07-31T12:17:15;1.10;;;0.90;;
19593;SDS011;9944;48.240;16.478;2023-07-31T12:21:20;1.45;;;0.95;;
19593;SDS011;9944;48.240;16.478;2023-07-31T12:25:28;1.38;;;0.93;;
19593;SDS011;9944;48.240;16.478;2023-07-31T12:29:35;1.83;;;0.90;;
19593;SDS011;9944;48.240;16.478;2023-07-31T12:33:42;1.25;;;0.80;;
19593;SDS011;9944;48.240;16.478;2023-07-31T12:37:48;1.05;;;0.90;;
19593;SDS011;9944;48.240;16.478;2023-07-31T12:41:51;2.00;;;0.95;;
19593;SDS011;9944;48.240;16.478;2023-07-31T12:45:55;1.73;;;0.95;;
19593;SDS011;9944;48.240;16.478;2023-07-31T12:49:59;1.23;;;0.80;;
19593;SDS011;9944;48.240;16.478;2023-07-31T12:54:04;1.10;;;0.90;;
19593;SDS011;9944;48.240;16.478;2023-07-31T12:58:08;1.42;;;0.88;;
19593;SDS011;9944;48.240;16.478;2023-07-31T13:02:11;1.35;;;0.82;;
19593;SDS011;9944;48.240;16.478;2023-07-31T13:06:15;1.08;;;0.90;;
19593;SDS011;9944;48.240;16.478;2023-07-31T13:10:20;0.85;;;0.77;;
19593;SDS011;9944;48.240;16.478;2023-07-31T13:14:26;1.02;;;0.90;;
19593;SDS011;9944;48.240;16.478;2023-07-31T13:18:30;2.35;;;1.25;;
19593;SDS011;9944;48.240;16.478;2023-07-31T13:22:33;1.45;;;0.90;;
19593;SDS011;9944;48.240;16.478;2023-07-31T13:26:38;1.67;;;1.20;;
19593;SDS011;9944;48.240;16.478;2023-07-31T13:30:42;1.60;;;1.13;;
19593;SDS011;9944;48.240;16.478;2023-07-31T13:34:45;1.10;;;0.98;;
19593;SDS011;9944;48.240;16.478;2023-07-31T13:38:50;1.10;;;0.80;;
19593;SDS011;9944;48.240;16.478;2023-07-31T13:42:54;1.40;;;1.10;;
19593;SDS011;9944;48.240;16.478;2023-07-31T13:46:58;0.82;;;0.82;;
19593;SDS011;9944;48.240;16.478;2023-07-31T13:51:02;1.10;;;1.00;;
19593;SDS011;9944;48.240;16.478;2023-07-31T13:55:06;1.90;;;0.80;;
19593;SDS011;9944;48.240;16.478;2023-07-31T13:59:11;1.35;;;0.90;;
19593;SDS011;9944;48.240;16.478;2023-07-31T14:03:16;2.20;;;1.00;;
19593;SDS011;9944;48.240;16.478;2023-07-31T14:07:20;1.20;;;1.10;;
19593;SDS011;9944;48.240;16.478;2023-07-31T14:11:23;1.85;;;1.10;;
19593;SDS011;9944;48.240;16.478;2023-07-31T14:15:28;2.28;;;1.27;;
19593;SDS011;9944;48.240;16.478;2023-07-31T14:19:33;1.10;;;0.90;;
19593;SDS011;9944;48.240;16.478;2023-07-31T14:23:37;1.35;;;0.80;;
19593;SDS011;9944;48.240;16.478;2023-07-31T14:27:41;2.40;;;0.95;;
19593;SDS011;9944;48.240;16.478;2023-07-31T14:31:46;1.65;;;0.90;;
19593;SDS011;9944;48.240;16.478;2023-07-31T14:35:49;2.55;;;1.30;;
19593;SDS011;9944;48.240;16.478;2023-07-31T14:39:53;0.85;;;0.85;;
19593;SDS011;9944;48.240;16.478;2023-07-31T14:43:58;1.02;;;0.85;;
19593;SDS011;9944;48.240;16.478;2023-07-31T14:48:03;2.35;;;0.93;;
19593;SDS011;9944;48.240;16.478;2023-07-31T14:52:07;1.10;;;1.00;;
19593;SDS011;9944;48.240;16.478;2023-07-31T14:56:10;1.70;;;1.20;;
19593;SDS011;9944;48.240;16.478;2023-07-31T15:00:14;1.58;;;1.00;;
19593;SDS011;9944;48.240;16.478;2023-07-31T15:04:19;1.55;;;1.00;;
19593;SDS011;9944;48.240;16.478;2023-07-31T15:08:23;1.38;;;1.00;;
19593;SDS011;9944;48.240;16.478;2023-07-31T15:12:27;1.17;;;0.85;;
19593;SDS011;9944;48.240;16.478;2023-07-31T15:16:31;1.02;;;0.90;;
19593;SDS011;9944;48.240;16.478;2023-07-31T15:20:36;1.92;;;1.00;;
19593;SDS011;9944;48.240;16.478;2023-07-31T15:24:39;1.33;;;1.02;;
19593;SDS011;9944;48.240;16.478;2023-07-31T15:28:46;1.08;;;0.98;;
19593;SDS011;9944;48.240;16.478;2023-07-31T15:32:52;1.13;;;0.80;;
19593;SDS011;9944;48.240;16.478;2023-07-31T15:36:57;1.42;;;0.85;;
19593;SDS011;9944;48.240;16.478;2023-07-31T15:41:01;1.13;;;0.80;;
19593;SDS011;9944;48.240;16.478;2023-07-31T15:45:05;1.02;;;0.80;;
19593;SDS011;9944;48.240;16.478;2023-07-31T15:49:10;1.50;;;1.10;;
19593;SDS011;9944;48.240;16.478;2023-07-31T15:53:16;2.85;;;1.08;;
19593;SDS011;9944;48.240;16.478;2023-07-31T15:57:20;1.20;;;1.10;;
19593;SDS011;9944;48.240;16.478;2023-07-31T16:01:23;0.90;;;0.88;;
19593;SDS011;9944;48.240;16.478;2023-07-31T16:05:27;1.10;;;0.90;;
19593;SDS011;9944;48.240;16.478;2023-07-31T16:09:32;1.73;;;1.05;;
19593;SDS011;9944;48.240;16.478;2023-07-31T16:13:36;1.67;;;1.13;;
19593;SDS011;9944;48.240;16.478;2023-07-31T16:17:39;1.33;;;0.90;;
19593;SDS011;9944;48.240;16.478;2023-07-31T16:21:43;1.63;;;1.10;;
19593;SDS011;9944;48.240;16.478;2023-07-31T16:25:48;1.33;;;1.00;;
19593;SDS011;9944;48.240;16.478;2023-07-31T16:29:51;1.25;;;1.00;;
19593;SDS011;9944;48.240;16.478;2023-07-31T16:33:55;2.67;;;1.13;;
19593;SDS011;9944;48.240;16.478;2023-07-31T16:38:00;1.95;;;1.10;;
19593;SDS011;9944;48.240;16.478;2023-07-31T16:42:05;1.17;;;0.90;;
19593;SDS011;9944;48.240;16.478;2023-07-31T16:46:10;2.40;;;1.10;;
19593;SDS011;9944;48.240;16.478;2023-07-31T16:50:13;2.47;;;1.38;;
19593;SDS011;9944;48.240;16.478;2023-07-31T16:54:17;0.98;;;0.82;;
19593;SDS011;9944;48.240;16.478;2023-07-31T16:58:22;1.80;;;1.30;;
19593;SDS011;9944;48.240;16.478;2023-07-31T17:02:26;1.10;;;0.95;;
19593;SDS011;9944;48.240;16.478;2023-07-31T17:06:30;1.33;;;1.13;;
19593;SDS011;9944;48.240;16.478;2023-07-31T17:10:34;1.13;;;1.02;;
19593;SDS011;9944;48.240;16.478;2023-07-31T17:14:38;1.95;;;1.17;;
19593;SDS011;9944;48.240;16.478;2023-07-31T17:18:42;1.08;;;0.98;;
19593;SDS011;9944;48.240;16.478;2023-07-31T17:22:45;1.15;;;0.93;;
19593;SDS011;9944;48.240;16.478;2023-07-31T17:26:50;2.00;;;1.00;;
19593;SDS011;9944;48.240;16.478;2023-07-31T17:30:55;1.55;;;0.90;;
19593;SDS011;9944;48.240;16.478;2023-07-31T17:34:58;1.38;;;1.10;;
19593;SDS011;9944;48.240;16.478;2023-07-31T17:39:02;1.67;;;1.10;;
19593;SDS011;9944;48.240;16.478;2023-07-31T17:43:06;1.80;;;0.90;;
19593;SDS011;9944;48.240;16.478;2023-07-31T17:47:11;1.52;;;1.10;;
19593;SDS011;9944;48.240;16.478;2023-07-31T17:51:14;1.50;;;0.90;;
19593;SDS011;9944;48.240;16.478;2023-07-31T17:55:19;1.40;;;1.08;;
19593;SDS011;9944;48.240;16.478;2023-07-31T17:59:22;1.75;;;1.00;;
19593;SDS011;9944;48.240;16.478;2023-07-31T18:03:27;1.40;;;1.00;;
19593;SDS011;9944;48.240;16.478;2023-07-31T18:07:31;1.48;;;1.05;;
19593;SDS011;9944;48.240;16.478;2023-07-31T18:11:34;0.98;;;0.80;;
19593;SDS011;9944;48.240;16.478;2023-07-31T18:15:42;1.10;;;1.00;;
19593;SDS011;9944;48.240;16.478;2023-07-31T18:19:48;1.05;;;0.95;;
19593;SDS011;9944;48.240;16.478;2023-07-31T18:23:52;1.10;;;1.00;;
19593;SDS011;9944;48.240;16.478;2023-07-31T18:27:58;1.70;;;1.17;;
19593;SDS011;9944;48.240;16.478;2023-07-31T18:32:02;1.33;;;1.08;;
19593;SDS011;9944;48.240;16.478;2023-07-31T18:36:07;1.55;;;0.90;;
19593;SDS011;9944;48.240;16.478;2023-07-31T18:40:10;3.45;;;1.30;;
19593;SDS011;9944;48.240;16.478;2023-07-31T18:44:15;1.38;;;1.10;;
19593;SDS011;9944;48.240;16.478;2023-07-31T18:48:18;1.75;;;1.13;;
19593;SDS011;9944;48.240;16.478;2023-07-31T18:52:23;2.20;;;1.25;;
19593;SDS011;9944;48.240;16.478;2023-07-31T18:56:26;2.17;;;1.13;;
19593;SDS011;9944;48.240;16.478;2023-07-31T19:00:30;1.83;;;1.23;;
19593;SDS011;9944;48.240;16.478;2023-07-31T19:04:35;3.03;;;1.20;;
19593;SDS011;9944;48.240;16.478;2023-07-31T19:08:39;3.25;;;1.60;;
19593;SDS011;9944;48.240;16.478;2023-07-31T19:12:44;1.60;;;1.35;;
19593;SDS011;9944;48.240;16.478;2023-07-31T19:16:50;2.05;;;1.20;;
19593;SDS011;9944;48.240;16.478;2023-07-31T19:20:56;2.22;;;1.45;;
19593;SDS011;9944;48.240;16.478;2023-07-31T19:25:01;1.80;;;1.40;;
19593;SDS011;9944;48.240;16.478;2023-07-31T19:29:05;1.70;;;1.40;;
19593;SDS011;9944;48.240;16.478;2023-07-31T19:33:08;1.70;;;1.40;;
19593;SDS011;9944;48.240;16.478;2023-07-31T19:37:12;3.53;;;1.60;;
19593;SDS011;9944;48.240;16.478;2023-07-31T19:41:17;2.03;;;1.40;;
19593;SDS011;9944;48.240;16.478;2023-07-31T19:45:23;2.78;;;1.50;;
19593;SDS011;9944;48.240;16.478;2023-07-31T19:49:26;1.58;;;1.48;;
19593;SDS011;9944;48.240;16.478;2023-07-31T19:53:30;2.83;;;1.77;;
19593;SDS011;9944;48.240;16.478;2023-07-31T19:57:35;1.95;;;1.33;;
19593;SDS011;9944;48.240;16.478;2023-07-31T20:01:38;1.75;;;1.20;;
19593;SDS011;9944;48.240;16.478;2023-07-31T20:05:42;2.38;;;1.67;;
19593;SDS011;9944;48.240;16.478;2023-07-31T20:09:46;2.17;;;1.20;;
19593;SDS011;9944;48.240;16.478;2023-07-31T20:13:51;2.28;;;1.35;;
19593;SDS011;9944;48.240;16.478;2023-07-31T20:17:54;1.80;;;1.40;;
19593;SDS011;9944;48.240;16.478;2023-07-31T20:21:58;2.38;;;1.20;;
19593;SDS011;9944;48.240;16.478;2023-07-31T20:26:02;1.95;;;1.35;;
19593;SDS011;9944;48.240;16.478;2023-07-31T20:30:07;1.50;;;1.40;;
19593;SDS011;9944;48.240;16.478;2023-07-31T20:34:11;2.10;;;1.50;;
19593;SDS011;9944;48.240;16.478;2023-07-31T20:38:14;2.00;;;1.70;;
19593;SDS011;9944;48.240;16.478;2023-07-31T20:42:18;1.63;;;1.40;;
19593;SDS011;9944;48.240;16.478;2023-07-31T20:46:24;2.00;;;1.65;;
19593;SDS011;9944;48.240;16.478;2023-07-31T20:50:27;2.92;;;1.45;;
19593;SDS011;9944;48.240;16.478;2023-07-31T20:54:33;2.13;;;1.75;;
19593;SDS011;9944;48.240;16.478;2023-07-31T20:58:37;1.95;;;1.50;;
19593;SDS011;9944;48.240;16.478;2023-07-31T21:02:42;3.08;;;1.90;;
19593;SDS011;9944;48.240;16.478;2023-07-31T21:06:46;4.22;;;1.55;;
19593;SDS011;9944;48.240;16.478;2023-07-31T21:10:50;2.58;;;1.60;;
19593;SDS011;9944;48.240;16.478;2023-07-31T21:14:53;1.70;;;1.50;;
19593;SDS011;9944;48.240;16.478;2023-07-31T21:18:58;1.70;;;1.45;;
19593;SDS011;9944;48.240;16.478;2023-07-31T21:23:02;1.95;;;1.52;;
19593;SDS011;9944;48.240;16.478;2023-07-31T21:27:08;2.50;;;1.65;;
19593;SDS011;9944;48.240;16.478;2023-07-31T21:31:12;3.75;;;1.80;;
19593;SDS011;9944;48.240;16.478;2023-07-31T21:35:19;1.92;;;1.73;;
19593;SDS011;9944;48.240;16.478;2023-07-31T21:39:22;1.55;;;1.42;;
19593;SDS011;9944;48.240;16.478;2023-07-31T21:43:26;1.70;;;1.60;;
19593;SDS011;9944;48.240;16.478;2023-07-31T21:47:30;2.05;;;1.60;;
19593;SDS011;9944;48.240;16.478;2023-07-31T21:51:35;2.40;;;1.80;;
19593;SDS011;9944;48.240;16.478;2023-07-31T21:55:38;2.67;;;1.65;;
19593;SDS011;9944;48.240;16.478;2023-07-31T21:59:42;1.98;;;1.67;;
19593;SDS011;9944;48.240;16.478;2023-07-31T22:03:45;1.98;;;1.63;;
19593;SDS011;9944;48.240;16.478;2023-07-31T22:07:50;2.08;;;1.65;;
19593;SDS011;9944;48.240;16.478;2023-07-31T22:11:54;2.22;;;1.60;;
19593;SDS011;9944;48.240;16.478;2023-07-31T22:15:57;3.35;;;2.00;;
19593;SDS011;9944;48.240;16.478;2023-07-31T22:20:01;2.92;;;2.10;;
19593;SDS011;9944;48.240;16.478;2023-07-31T22:24:06;2.70;;;2.10;;
19593;SDS011;9944;48.240;16.478;2023-07-31T22:28:09;2.35;;;1.65;;
19593;SDS011;9944;48.240;16.478;2023-07-31T22:32:22;3.13;;;1.60;;
19593;SDS011;9944;48.240;16.478;2023-07-31T22:36:25;2.75;;;1.60;;
19593;SDS011;9944;48.240;16.478;2023-07-31T22:40:30;2.28;;;1.80;;
19593;SDS011;9944;48.240;16.478;2023-07-31T22:44:34;2.47;;;1.88;;
19593;SDS011;9944;48.240;16.478;2023-07-31T22:48:38;2.70;;;2.10;;
19593;SDS011;9944;48.240;16.478;2023-07-31T22:52:41;2.75;;;2.00;;
19593;SDS011;9944;48.240;16.478;2023-07-31T22:56:46;1.70;;;1.60;;
19593;SDS011;9944;48.240;16.478;2023-07-31T23:00:49;2.47;;;1.73;;
19593;SDS011;9944;48.240;16.478;2023-07-31T23:04:53;4.60;;;1.95;;
19593;SDS011;9944;48.240;16.478;2023-07-31T23:08:56;2.00;;;1.70;;
19593;SDS011;9944;48.240;16.478;2023-07-31T23:13:01;2.60;;;1.90;;
19593;SDS011;9944;48.240;16.478;2023-07-31T23:17:05;2.10;;;1.80;;
19593;SDS011;9944;48.240;16.478;2023-07-31T23:21:09;2.50;;;1.70;;
19593;SDS011;9944;48.240;16.478;2023-07-31T23:25:12;2.78;;;1.90;;
19593;SDS011;9944;48.240;16.478;2023-07-31T23:29:17;2.50;;;1.85;;
19593;SDS011;9944;48.240;16.478;2023-07-31T23:33:21;2.97;;;1.83;;
19593;SDS011;9944;48.240;16.478;2023-07-31T23:37:24;2.58;;;2.00;;
19593;SDS011;9944;48.240;16.478;2023-07-31T23:41:28;2.05;;;1.50;;
19593;SDS011;9944;48.240;16.478;2023-07-31T23:45:33;2.13;;;1.70;;
19593;SDS011;9944;48.240;16.478;2023-07-31T23:49:37;1.90;;;1.60;;
19593;SDS011;9944;48.240;16.478;2023-07-31T23:53:40;3.22;;;1.88;;
19593;SDS011;9944;48.240;16.478;2023-07-31T23:57:44;2.17;;;1.88;;
